Time;durP1;ratioP1;P1;durP2;ratioP2;P2;SDS_P1;SDS_P2;PMS_P1;PMS_P2;Temp;Humidity;BMP_temperature;BMP_pressure;BME280_temperature;BME280_humidity;BME280_pressure;Samples;Min_cycle;Max_cycle;Signal;HPM_P1;HPM_P2
2023/03/23 07:14:33;;;;;;;6.57;2.95;;;;;;;-145.79;83.45;76997.88;5594255;23;20050;-76
2023/03/23 07:17:04;;;;;;;6.13;2.00;;;;;;;-145.79;84.33;77008.47;5229465;28;20044;-77
2023/03/23 07:19:35;;;;;;;4.72;2.33;;;;;;;-145.79;84.63;77023.31;5230901;28;20025;-76
2023/03/23 07:22:07;;;;;;;4.30;2.45;;;;;;;-145.79;86.51;77046.63;5236176;28;20021;-76
2023/03/23 07:35:25;;;;;;;9.68;3.20;;;;;;;-145.79;91.81;77093.25;6103643;23;20401;-76
2023/03/23 07:37:56;;;;;;;10.63;3.30;;;;;;;-145.79;92.84;77114.44;5200590;28;20032;-75
2023/03/23 07:40:28;;;;;;;6.50;2.30;;;;;;;-145.79;88.12;77129.28;5216133;28;20104;-76
2023/03/23 07:43:01;;;;;;;4.32;2.50;;;;;;;-145.79;87.25;77105.97;5206755;28;20030;-76
2023/03/23 07:45:33;;;;;;;5.60;2.08;;;;;;;-145.79;87.09;77105.97;5199404;28;20023;-76
2023/03/23 07:48:05;;;;;;;3.53;2.17;;;;;;;-145.79;87.45;77105.97;5191574;28;20054;-76
2023/03/23 07:50:37;;;;;;;3.90;1.80;;;;;;;-145.79;87.86;77105.97;5214907;28;20389;-76
2023/03/23 07:53:08;;;;;;;2.75;1.60;;;;;;;-145.79;88.54;77103.84;5199675;28;20123;-76
2023/03/23 07:55:40;;;;;;;5.03;1.80;;;;;;;-145.79;89.12;77105.97;5214684;28;20042;-77
2023/03/23 07:58:18;;;;;;;4.45;1.88;;;;;;;-145.79;88.69;77114.44;5200845;28;20533;-84
2023/03/23 08:00:49;;;;;;;3.30;1.70;;;;;;;-145.79;87.76;77118.69;5194723;28;20033;-70
2023/03/23 08:03:21;;;;;;;2.40;1.52;;;;;;;-145.79;87.35;77131.41;5213838;28;20026;-73
2023/03/23 08:05:52;;;;;;;2.60;1.48;;;;;;;-145.79;86.07;77129.28;5202007;28;20054;-73
2023/03/23 08:08:24;;;;;;;3.03;1.50;;;;;;;-145.79;85.26;77133.53;5192834;28;20034;-73
2023/03/23 08:10:55;;;;;;;1.90;1.25;;;;;;;-145.79;85.26;77148.34;5193830;28;20392;-73
2023/03/23 08:13:26;;;;;;;3.47;1.20;;;;;;;-145.79;85.38;77148.34;5184050;28;20069;-73
2023/03/23 08:15:57;;;;;;;3.42;1.38;;;;;;;-145.79;84.91;77165.31;5189994;28;20040;-74
2023/03/23 08:18:31;;;;;;;5.97;1.40;;;;;;;-145.79;85.16;77169.56;5185194;28;20085;-74
2023/03/23 08:21:08;;;;;;;3.75;1.30;;;;;;;-145.79;85.37;77173.78;5200144;28;20121;-74
2023/03/23 08:23:39;;;;;;;1.95;1.13;;;;;;;-145.79;85.59;77173.78;5177819;28;20022;-74
2023/03/23 08:26:11;;;;;;;1.83;1.13;;;;;;;-145.79;84.87;77169.56;5201167;28;20028;-74
2023/03/23 08:28:43;;;;;;;3.53;1.25;;;;;;;-145.79;83.92;77178.03;5184679;28;20058;-75
2023/03/23 08:31:16;;;;;;;2.17;1.20;;;;;;;-145.79;83.83;77173.78;5169984;28;20054;-74
2023/03/23 08:33:48;;;;;;;2.88;1.27;;;;;;;-145.79;84.14;77156.84;5199523;28;20545;-74
2023/03/23 08:36:19;;;;;;;2.35;1.35;;;;;;;-145.79;83.35;77158.97;5192686;28;20127;-74
2023/03/23 08:38:54;;;;;;;4.05;1.40;;;;;;;-145.79;83.30;77152.59;5179117;28;20106;-75
2023/03/23 08:41:25;;;;;;;1.83;1.30;;;;;;;-145.79;83.47;77146.25;5182104;28;20033;-74
2023/03/23 08:43:57;;;;;;;3.60;1.67;;;;;;;-145.79;83.97;77148.34;5189809;28;20027;-74
2023/03/23 08:46:28;;;;;;;3.08;1.25;;;;;;;-145.79;83.50;77148.34;5187900;28;20037;-74
2023/03/23 08:49:00;;;;;;;1.02;0.93;;;;;;;-145.79;83.85;77148.34;5185202;28;20038;-75
2023/03/23 08:51:32;;;;;;;1.67;1.30;;;;;;;-145.79;84.68;77146.25;5173937;28;20101;-75
2023/03/23 08:54:03;;;;;;;3.28;1.23;;;;;;;-145.79;84.39;77148.34;5180815;28;20047;-75
2023/03/23 08:56:34;;;;;;;7.75;3.05;;;;;;;-145.79;83.90;77150.47;5183566;28;20455;-74
2023/03/23 08:59:06;;;;;;;2.85;1.10;;;;;;;-145.79;84.39;77144.13;5180837;28;20081;-74
2023/03/23 09:01:38;;;;;;;3.88;1.33;;;;;;;-145.79;84.48;77152.59;5199718;28;20022;-74
2023/03/23 09:04:09;;;;;;;3.92;1.60;;;;;;;-145.79;84.13;77167.44;5185751;28;20054;-74
2023/03/23 09:06:41;;;;;;;2.22;1.50;;;;;;;-145.79;84.12;77156.84;5199026;28;20109;-73
2023/03/23 09:09:16;;;;;;;5.85;1.70;;;;;;;-145.79;84.28;77133.53;5182561;28;20111;-74
2023/03/23 09:11:47;;;;;;;3.90;2.00;;;;;;;-145.79;83.33;77146.25;5171768;28;20114;-73
2023/03/23 09:14:18;;;;;;;3.88;1.75;;;;;;;-145.79;84.80;77137.75;5173851;28;20126;-75
2023/03/23 09:16:50;;;;;;;2.38;1.55;;;;;;;-145.79;84.27;77139.88;5176858;28;20030;-74
2023/03/23 09:19:24;;;;;;;3.58;1.50;;;;;;;-145.79;84.32;77146.25;5175221;28;20122;-75
2023/03/23 09:21:56;;;;;;;5.13;2.00;;;;;;;-145.79;84.34;77142.00;5180322;28;20038;-74
2023/03/23 09:24:27;;;;;;;3.25;1.50;;;;;;;-145.79;83.52;77144.13;5193873;28;20022;-75
2023/03/23 09:27:01;;;;;;;3.20;1.45;;;;;;;-145.79;83.70;77144.13;5197478;28;20445;-74
2023/03/23 09:29:33;;;;;;;2.50;1.52;;;;;;;-145.79;83.41;77148.34;5179243;28;20476;-75
2023/03/23 09:32:04;;;;;;;4.03;1.42;;;;;;;-145.79;84.28;77137.75;5180168;28;20042;-74
2023/03/23 09:34:38;;;;;;;2.35;1.50;;;;;;;-145.79;84.31;77129.28;5166007;28;20027;-75
2023/03/23 09:37:09;;;;;;;4.72;1.98;;;;;;;-145.79;84.22;77142.00;5179541;28;20042;-75
2023/03/23 09:39:43;;;;;;;3.40;1.98;;;;;;;-145.79;84.61;77131.41;5179503;28;20049;-75
2023/03/23 09:42:46;;;;;;;5.65;3.28;;;;;;;-145.79;83.72;77131.41;5181949;28;20125;-75
2023/03/23 09:45:43;;;;;;;4.03;1.95;;;;;;;-145.79;84.05;77122.94;5177307;28;20096;-73
2023/03/23 09:48:24;;;;;;;3.20;1.33;;;;;;;-145.79;84.52;77114.44;5193433;28;20092;-72
2023/03/23 09:51:21;;;;;;;4.72;1.48;;;;;;;-145.79;84.64;77105.97;5187984;28;20373;-71
2023/03/23 09:54:03;;;;;;;3.40;1.50;;;;;;;-145.79;83.83;77103.84;5177145;28;20049;-72
2023/03/23 09:56:37;;;;;;;2.63;1.20;;;;;;;-145.79;83.69;77095.38;5192703;28;20047;-71
2023/03/23 09:59:26;;;;;;;3.63;1.30;;;;;;;-145.79;83.74;77091.13;5178801;28;20053;-70
2023/03/23 10:02:24;;;;;;;5.93;1.73;;;;;;;-145.79;83.73;77080.53;5180103;28;20109;-74
2023/03/23 10:05:14;;;;;;;4.30;2.28;;;;;;;-145.79;82.11;77086.91;5186062;28;20030;-71
2023/03/23 10:07:46;;;;;;;4.35;2.90;;;;;;;-145.79;82.19;77082.66;5180334;28;20111;-73
2023/03/23 10:10:18;;;;;;;3.85;1.77;;;;;;;-145.79;82.62;77076.31;5179434;28;20113;-72
2023/03/23 10:12:58;;;;;;;4.20;1.83;;;;;;;-145.79;83.07;77065.69;5181916;28;20098;-71
2023/03/23 10:15:35;;;;;;;4.20;1.70;;;;;;;-145.79;81.39;77063.59;5193545;28;20378;-73
2023/03/23 10:18:10;;;;;;;5.25;1.90;;;;;;;-145.79;81.71;77050.88;5194912;28;20030;-72
2023/03/23 10:20:57;;;;;;;3.28;2.13;;;;;;;-145.79;80.41;77055.09;5182875;28;20057;-72
2023/03/23 10:23:46;;;;;;;3.92;2.22;;;;;;;-145.79;81.27;77033.91;5190336;28;20215;-73
2023/03/23 10:26:39;;;;;;;2.55;1.63;;;;;;;-145.79;79.82;77029.66;5186951;28;20031;-74
2023/03/23 10:29:31;;;;;;;6.90;1.77;;;;;;;-145.79;80.81;77004.25;5172316;28;20117;-74
2023/03/23 10:32:11;;;;;;;3.58;2.10;;;;;;;-145.79;79.23;77012.72;5181598;28;20049;-74
2023/03/23 10:34:59;;;;;;;4.22;1.67;;;;;;;-145.79;79.23;77014.84;5195011;28;20045;-73
2023/03/23 10:37:41;;;;;;;6.00;2.50;;;;;;;-145.79;79.99;77008.47;5169641;28;20042;-72
2023/03/23 10:40:27;;;;;;;4.07;1.98;;;;;;;-145.79;78.32;76993.63;5171648;28;20386;-72
2023/03/23 10:43:01;;;;;;;4.90;2.30;;;;;;;-145.79;76.74;76997.88;5172752;28;20035;-72
2023/03/23 10:45:34;;;;;;;5.90;3.28;;;;;;;-145.79;77.26;77004.25;5176759;28;20022;-70
2023/03/23 10:48:24;;;;;;;4.20;2.20;;;;;;;-145.79;78.41;76987.28;5182330;28;20115;-72
2023/03/23 10:50:59;;;;;;;5.28;2.00;;;;;;;-145.79;77.54;76987.28;5179659;28;20027;-74
2023/03/23 10:53:43;;;;;;;6.82;2.40;;;;;;;-145.79;78.05;76987.28;5187358;28;20023;-76
2023/03/23 10:56:37;;;;;;;6.20;2.60;;;;;;;-145.79;78.53;76970.31;5188132;28;20486;-74
2023/03/23 10:59:22;;;;;;;4.90;2.00;;;;;;;-145.79;77.87;76961.84;5186462;28;20049;-73
2023/03/23 11:01:58;;;;;;;7.90;2.27;;;;;;;-145.79;77.91;76940.66;5185397;28;20066;-74
2023/03/23 11:04:31;;;;;;;5.88;3.10;;;;;;;-145.79;77.62;76942.78;5175601;28;20286;-73
2023/03/23 11:07:13;;;;;;;5.22;2.70;;;;;;;-145.79;74.24;76932.19;5177559;28;20031;-73
2023/03/23 11:09:53;;;;;;;4.85;2.20;;;;;;;-145.79;74.44;76913.09;5169058;28;20046;-73
2023/03/23 11:12:27;;;;;;;5.70;2.20;;;;;;;-145.79;73.12;76923.69;5169233;28;20142;-72
2023/03/23 11:15:39;;;;;;;6.60;2.38;;;;;;;-145.79;73.21;76900.38;5194763;28;20447;-73
2023/03/23 11:18:38;;;;;;;4.80;2.45;;;;;;;-145.79;73.58;76896.16;5115241;29;20119;-71
2023/03/23 11:21:13;;;;;;;4.20;2.13;;;;;;;-145.79;71.63;76881.31;5100158;29;20100;-73
2023/03/23 11:23:51;;;;;;;4.38;1.85;;;;;;;-145.79;70.87;76885.56;5180743;28;20042;-72
2023/03/23 11:26:30;;;;;;;3.95;1.70;;;;;;;-145.79;70.44;76877.06;5197504;28;20069;-72
2023/03/23 11:29:11;;;;;;;6.07;2.25;;;;;;;-145.79;70.49;76874.94;5164454;28;20086;-73
2023/03/23 11:31:48;;;;;;;5.90;1.90;;;;;;;-145.79;70.60;76877.06;5175399;28;20035;-72
2023/03/23 11:34:33;;;;;;;3.75;2.05;;;;;;;-145.79;70.07;76877.06;5188787;28;20031;-72
2023/03/23 11:37:22;;;;;;;2.33;1.48;;;;;;;-145.79;70.25;76885.56;5191733;28;20079;-73
2023/03/23 11:39:59;;;;;;;5.55;2.35;;;;;;;-145.79;71.22;76891.91;5175714;28;20042;-72
2023/03/23 11:42:36;;;;;;;4.30;2.00;;;;;;;-145.79;71.76;76879.19;5184118;28;20033;-73
2023/03/23 11:45:32;;;;;;;4.32;2.38;;;;;;;-145.79;72.12;76872.84;5194460;28;20082;-72
2023/03/23 11:48:20;;;;;;;3.28;1.65;;;;;;;-145.79;71.71;76860.13;5190896;28;20037;-73
2023/03/23 11:54:12;;;;;;;5.20;1.70;;;;;;;-145.79;70.88;76826.22;5182181;28;20038;-72
2023/03/23 11:56:45;;;;;;;3.38;1.85;;;;;;;-145.79;69.18;76819.84;5181069;28;20112;-71
2023/03/23 11:59:25;;;;;;;5.38;2.13;;;;;;;-145.79;67.98;76805.00;5198723;28;20116;-71
2023/03/23 12:02:20;;;;;;;3.60;2.10;;;;;;;-145.79;67.92;76790.19;5181987;28;20038;-71
2023/03/23 12:05:30;;;;;;;5.97;2.67;;;;;;;-145.79;68.10;76764.75;5189555;28;20037;-71
2023/03/23 12:08:23;;;;;;;3.33;1.67;;;;;;;-145.79;66.27;76762.63;5176178;28;20062;-70
2023/03/23 12:11:03;;;;;;;3.70;2.30;;;;;;;-145.79;65.73;76756.28;5182497;28;20451;-71
2023/03/23 12:13:52;;;;;;;5.10;1.95;;;;;;;-145.79;66.22;76762.63;5192099;28;20040;-70
2023/03/23 12:16:41;;;;;;;5.05;2.10;;;;;;;-145.79;66.54;76749.91;5195667;28;20413;-71
2023/03/23 12:19:29;;;;;;;5.47;2.13;;;;;;;-145.79;66.95;76739.31;5201485;28;20133;-72
2023/03/23 12:22:37;;;;;;;6.63;2.35;;;;;;;-145.79;66.55;76722.34;5176384;28;20500;-72
2023/03/23 12:25:34;;;;;;;4.28;2.17;;;;;;;-145.79;65.39;76741.44;5187540;28;20621;-72
2023/03/23 12:28:17;;;;;;;4.97;2.45;;;;;;;-145.79;66.23;76726.59;5180196;28;20047;-73
2023/03/23 12:31:01;;;;;;;5.07;2.50;;;;;;;-145.79;65.45;76709.66;5183946;28;20039;-73
2023/03/23 12:33:45;;;;;;;5.65;2.28;;;;;;;-145.79;64.88;76682.09;5188738;28;20049;-71
2023/03/23 12:36:32;;;;;;;5.47;2.60;;;;;;;-145.79;64.10;76692.69;5191132;28;20053;-72
2023/03/23 12:39:48;;;;;;;4.78;2.03;;;;;;;-145.79;65.52;76713.88;5178946;28;20057;-73
2023/03/23 12:42:55;;;;;;;4.95;2.38;;;;;;;-145.79;65.68;76690.56;5086651;29;20507;-74
2023/03/23 12:45:58;;;;;;;5.45;2.38;;;;;;;-145.79;65.55;76699.06;5067153;29;20045;-71
2023/03/23 12:48:34;;;;;;;6.80;2.55;;;;;;;-145.79;65.70;76684.22;5175740;28;20022;-72
2023/03/23 12:51:15;;;;;;;4.88;2.17;;;;;;;-145.79;64.50;76675.75;5196005;28;20027;-72
2023/03/23 12:53:51;;;;;;;4.20;2.10;;;;;;;-145.79;63.87;76648.19;5179239;28;20066;-72
2023/03/23 12:56:29;;;;;;;6.18;2.50;;;;;;;-145.79;62.39;76631.22;5178331;28;20042;-71
2023/03/23 12:59:20;;;;;;;9.10;3.33;;;;;;;-145.79;62.54;76643.94;5182893;28;20042;-71
2023/03/23 13:02:03;;;;;;;6.70;2.42;;;;;;;-145.79;62.92;76648.19;5182286;28;20041;-71
2023/03/23 13:04:45;;;;;;;7.60;2.28;;;;;;;-145.79;62.95;76627.00;5192331;28;20038;-70
2023/03/23 13:07:22;;;;;;;8.15;2.95;;;;;;;-145.79;62.35;76627.00;5171802;28;20030;-70
2023/03/23 13:10:20;;;;;;;6.90;3.00;;;;;;;-145.79;62.54;76597.31;5179710;28;20042;-70
2023/03/23 13:12:52;;;;;;;7.10;2.67;;;;;;;-145.79;60.81;76586.72;5180738;28;20379;-70
2023/03/23 13:15:53;;;;;;;6.15;2.47;;;;;;;-145.79;59.45;76578.25;5184781;28;20034;-70
2023/03/23 13:18:52;;;;;;;8.45;3.00;;;;;;;-145.79;59.68;76554.94;5176562;28;20035;-71
2023/03/23 13:22:03;;;;;;;7.53;2.67;;;;;;;-145.79;59.27;76561.28;5194756;28;20495;-70
2023/03/23 13:24:40;;;;;;;6.55;2.30;;;;;;;-145.79;60.50;76582.50;5134420;28;20035;-71
2023/03/23 13:27:13;;;;;;;4.47;2.38;;;;;;;-145.79;60.23;76610.03;5189276;28;20106;-70
2023/03/23 13:29:46;;;;;;;4.70;2.33;;;;;;;-145.79;60.51;76610.03;5196875;28;20018;-72
2023/03/23 13:32:19;;;;;;;5.28;2.45;;;;;;;-145.79;61.16;76639.72;5189492;28;20033;-72
2023/03/23 13:34:51;;;;;;;9.13;3.10;;;;;;;-145.79;63.43;76669.38;5194751;28;20026;-72
2023/03/23 13:37:25;;;;;;;6.25;2.72;;;;;;;-145.79;65.85;76682.09;5186356;28;20051;-72
2023/03/23 13:40:11;;;;;;;6.95;2.55;;;;;;;-145.79;68.41;76724.47;5182843;28;20034;-73
2023/03/23 13:42:54;;;;;;;11.27;3.67;;;;;;;-145.79;74.88;76771.09;5177890;28;20106;-74
2023/03/23 13:45:29;;;;;;;5.55;2.40;;;;;;;-145.79;76.63;76826.22;5184942;28;20042;-73
2023/03/23 13:48:17;;;;;;;6.13;3.37;;;;;;;-145.79;78.66;76838.94;5177333;28;20046;-74
2023/03/23 13:50:54;;;;;;;5.38;2.72;;;;;;;-145.79;80.45;76862.25;5179876;28;20067;-74
2023/03/23 13:53:32;;;;;;;6.57;2.47;;;;;;;-145.79;79.74;76868.59;5176413;28;20038;-73
2023/03/23 13:56:32;;;;;;;9.77;3.20;;;;;;;-145.79;80.22;76879.19;5178227;28;20023;-73
2023/03/23 13:59:15;;;;;;;6.97;2.75;;;;;;;-145.79;81.88;76879.19;5179095;28;20049;-74
2023/03/23 14:01:46;;;;;;;7.63;3.05;;;;;;;-145.79;81.38;76887.66;5171367;28;20486;-74
2023/03/23 14:04:19;;;;;;;4.18;2.33;;;;;;;-145.79;81.25;76864.34;5185927;28;20073;-74
2023/03/23 14:06:51;;;;;;;4.43;2.33;;;;;;;-145.79;81.81;76821.97;5179514;28;20030;-74
2023/03/23 14:09:33;;;;;;;9.05;2.88;;;;;;;-145.79;82.01;76796.53;5177761;28;20321;-72
2023/03/23 14:12:16;;;;;;;5.78;2.50;;;;;;;-145.79;82.03;76735.06;5182295;28;20031;-74
2023/03/23 14:14:57;;;;;;;5.00;2.70;;;;;;;-145.79;80.27;76711.75;5182165;28;20486;-74
2023/03/23 14:17:31;;;;;;;6.47;3.55;;;;;;;-145.79;79.92;76688.44;5186330;28;20035;-74
2023/03/23 14:20:05;;;;;;;8.75;3.00;;;;;;;-145.79;79.17;76703.28;5186771;28;20030;-74
2023/03/23 14:22:38;;;;;;;25.73;22.40;;;;;;;-145.79;78.17;76724.47;5196081;28;20113;-75
2023/03/23 14:25:18;;;;;;;5.13;3.20;;;;;;;-145.79;78.58;76737.19;5180897;28;20349;-76
2023/03/23 14:27:52;;;;;;;7.13;2.63;;;;;;;-145.79;78.23;76713.88;5184877;28;20039;-73
2023/03/23 14:30:27;;;;;;;5.80;2.92;;;;;;;-145.79;77.53;76711.75;5171580;28;20062;-74
2023/03/23 14:33:08;;;;;;;7.55;3.53;;;;;;;-145.79;77.60;76682.09;5170101;28;20061;-75
2023/03/23 14:35:43;;;;;;;5.10;2.55;;;;;;;-145.79;78.12;76654.53;5195851;28;20214;-75
2023/03/23 14:38:20;;;;;;;6.17;2.40;;;;;;;-145.79;77.23;76633.34;5174565;28;20383;-75
2023/03/23 14:40:51;;;;;;;7.60;2.83;;;;;;;-145.79;76.75;76637.59;5183529;28;20035;-73
2023/03/23 14:43:23;;;;;;;8.32;2.85;;;;;;;-145.79;76.96;76643.94;5179539;28;20028;-74
2023/03/23 14:46:00;;;;;;;5.78;3.05;;;;;;;-145.79;76.93;76677.84;5178416;28;20023;-73
2023/03/23 14:48:31;;;;;;;8.77;3.15;;;;;;;-145.79;78.31;76677.84;5176698;28;20031;-73
2023/03/23 14:51:06;;;;;;;6.45;2.78;;;;;;;-145.79;78.02;76682.09;5189915;28;20481;-72
2023/03/23 14:53:39;;;;;;;5.55;3.10;;;;;;;-145.79;78.05;76671.50;5189301;28;20031;-74
2023/03/23 14:56:13;;;;;;;9.23;2.85;;;;;;;-145.79;76.63;76641.84;5187006;28;20022;-74
2023/03/23 14:58:46;;;;;;;6.45;3.17;;;;;;;-145.79;75.87;76635.47;5174818;28;20019;-75
2023/03/23 15:01:22;;;;;;;6.65;2.70;;;;;;;-145.79;75.68;76635.47;5199065;28;20031;-75
2023/03/23 15:04:06;;;;;;;6.20;2.88;;;;;;;-145.79;75.19;76643.94;5180525;28;20116;-74
2023/03/23 15:06:43;;;;;;;6.38;2.42;;;;;;;-145.79;72.53;76654.53;5177768;28;20033;-75
2023/03/23 15:09:18;;;;;;;6.10;3.35;;;;;;;-145.79;73.27;76643.94;5176008;28;20030;-74
2023/03/23 15:11:56;;;;;;;5.75;2.35;;;;;;;-145.79;73.05;76639.72;5173406;28;20135;-74
2023/03/23 15:14:32;;;;;;;4.65;2.30;;;;;;;-145.79;73.49;76648.19;5177207;28;20030;-74
2023/03/23 15:17:03;;;;;;;7.47;3.25;;;;;;;-145.79;72.97;76648.19;5183697;28;20138;-71
2023/03/23 15:19:42;;;;;;;8.55;4.35;;;;;;;-145.79;73.08;76652.44;5171930;28;20031;-73
2023/03/23 15:22:22;;;;;;;6.25;2.70;;;;;;;-145.79;72.51;76650.31;5185502;28;20015;-74
2023/03/23 15:25:03;;;;;;;5.32;2.42;;;;;;;-145.79;72.37;76660.91;5188415;28;20399;-73
2023/03/23 15:27:41;;;;;;;8.07;2.70;;;;;;;-145.79;72.42;76660.91;5179030;28;20023;-74
2023/03/23 15:30:29;;;;;;;6.20;3.22;;;;;;;-145.79;73.50;76660.91;5180338;28;20029;-73
2023/03/23 15:33:09;;;;;;;7.38;2.75;;;;;;;-145.79;74.52;76677.84;5184332;28;20042;-72
2023/03/23 15:35:52;;;;;;;5.68;2.67;;;;;;;-145.79;74.78;76682.09;5193944;28;20611;-75
2023/03/23 15:38:32;;;;;;;7.43;2.90;;;;;;;-145.79;75.47;76690.56;5180316;28;20038;-74
2023/03/23 15:41:19;;;;;;;6.22;3.45;;;;;;;-145.79;76.27;76686.34;5180527;28;20544;-74
2023/03/23 15:43:53;;;;;;;4.95;2.28;;;;;;;-145.79;75.89;76694.81;5175000;28;20023;-75
2023/03/23 15:46:27;;;;;;;9.07;3.03;;;;;;;-145.79;76.50;76705.41;5185420;28;20030;-74
2023/03/23 15:48:58;;;;;;;6.20;2.92;;;;;;;-145.79;77.06;76707.53;5186190;28;20062;-74
2023/03/23 15:51:32;;;;;;;18.92;15.13;;;;;;;-145.79;75.64;76707.53;5194084;28;20092;-74
2023/03/23 15:54:07;;;;;;;11.07;7.82;;;;;;;-145.79;75.64;76707.53;5200783;28;20101;-75
2023/03/23 15:56:40;;;;;;;6.22;3.05;;;;;;;-145.79;74.97;76688.44;5172194;28;20488;-73
2023/03/23 15:59:11;;;;;;;5.28;2.20;;;;;;;-145.79;72.95;76667.25;5175534;28;20038;-73
2023/03/23 16:01:43;;;;;;;5.00;2.22;;;;;;;-145.79;71.66;76660.91;5189600;28;20026;-73
2023/03/23 16:04:17;;;;;;;6.07;1.88;;;;;;;-145.79;70.43;76658.78;5185954;28;20035;-72
2023/03/23 16:06:55;;;;;;;4.22;2.22;;;;;;;-145.79;70.38;76660.91;5181172;28;20031;-75
2023/03/23 16:09:29;;;;;;;5.88;2.40;;;;;;;-145.79;70.54;76669.38;5179505;28;20027;-74
2023/03/23 16:12:00;;;;;;;4.00;2.03;;;;;;;-145.79;69.80;76677.84;5188065;28;20096;-76
2023/03/23 16:14:32;;;;;;;10.15;5.55;;;;;;;-145.79;70.84;76682.09;5194143;28;20491;-74
2023/03/23 16:17:12;;;;;;;5.18;2.55;;;;;;;-145.79;70.98;76679.97;5183510;28;20034;-74
2023/03/23 16:19:46;;;;;;;6.45;2.60;;;;;;;-145.79;71.22;76682.09;5183355;28;20030;-74
2023/03/23 16:22:18;;;;;;;7.68;2.88;;;;;;;-145.79;70.64;76690.56;5198952;28;20031;-73
2023/03/23 16:24:49;;;;;;;5.38;2.58;;;;;;;-145.79;70.74;76703.28;5171300;28;20475;-73
2023/03/23 16:27:22;;;;;;;5.03;2.42;;;;;;;-145.79;70.90;76711.75;5181937;28;20038;-72
2023/03/23 16:29:53;;;;;;;9.13;2.45;;;;;;;-145.79;71.81;76716.00;5181689;28;20097;-72
